Time;durP1;ratioP1;P1;durP2;ratioP2;P2;SDS_P1;SDS_P2;PMS_P1;PMS_P2;Temp;Humidity;BMP_temperature;BMP_pressure;BME280_temperature;BME280_humidity;BME280_pressure;Samples;Min_cycle;Max_cycle;Signal;HPM_P1;HPM_P2
2022/04/03 00:00:56;;;;;;;6.77;2.87;;;-5.60;99.90;;;;;;5098172;28;20040;-64
2022/04/03 00:03:22;;;;;;;11.73;2.67;;;-5.60;99.90;;;;;;5096239;28;20039;-64
2022/04/03 00:05:47;;;;;;;9.13;2.67;;;-5.60;99.90;;;;;;5097491;28;20285;-64
2022/04/03 00:08:13;;;;;;;4.50;2.30;;;-5.60;99.90;;;;;;5097931;28;20044;-64
2022/04/03 00:10:42;;;;;;;4.13;2.10;;;-5.60;99.90;;;;;;5097321;28;20083;-64
2022/04/03 00:13:07;;;;;;;10.73;2.80;;;-5.70;99.90;;;;;;5096743;28;20032;-64
2022/04/03 00:15:38;;;;;;;10.07;3.20;;;-5.80;99.90;;;;;;5098711;28;20813;-64
2022/04/03 00:18:04;;;;;;;5.40;3.03;;;;;;;;;;5102430;28;20089;-64
2022/04/03 00:20:30;;;;;;;5.30;2.80;;;;;;;;;;5101484;28;20289;-64
2022/04/03 00:22:56;;;;;;;4.97;2.90;;;;;;;;;;5104358;28;20289;-64
2022/04/03 00:25:22;;;;;;;5.00;2.40;;;;;;;;;;5100997;28;20486;-64
2022/04/03 00:27:48;;;;;;;8.40;3.10;;;;;;;;;;5102875;28;20050;-64
2022/04/03 00:30:14;;;;;;;5.83;2.40;;;;;;;;;;5100308;28;20040;-64
2022/04/03 00:32:40;;;;;;;6.03;2.50;;;;;;;;;;5101575;28;20297;-64
2022/04/03 00:35:07;;;;;;;6.50;3.00;;;;;;;;;;5102215;28;20351;-64
2022/04/03 00:37:33;;;;;;;9.87;3.33;;;-5.90;99.90;;;;;;5100934;28;20762;-64
2022/04/03 00:39:59;;;;;;;7.03;3.07;;;-5.70;99.90;;;;;;5100904;28;20605;-64
2022/04/03 00:42:26;;;;;;;6.33;2.77;;;-5.60;99.90;;;;;;5099477;28;20270;-64
2022/04/03 00:44:52;;;;;;;7.43;3.50;;;-5.40;99.90;;;;;;5101002;28;20274;-64
2022/04/03 00:47:20;;;;;;;6.83;2.93;;;-5.30;99.90;;;;;;5099920;28;20305;-64
2022/04/03 00:49:45;;;;;;;8.80;3.13;;;-5.20;99.90;;;;;;5099184;28;20047;-64
2022/04/03 00:52:11;;;;;;;6.73;2.77;;;-5.10;99.90;;;;;;5100413;28;20637;-64
2022/04/03 00:54:37;;;;;;;6.57;3.60;;;-5.10;99.90;;;;;;5099836;28;20036;-63
2022/04/03 00:57:07;;;;;;;7.40;3.33;;;-5.20;99.90;;;;;;5083673;28;20054;-64
2022/04/03 00:59:34;;;;;;;7.47;3.23;;;-5.20;99.90;;;;;;5096614;28;20048;-64
2022/04/03 01:02:00;;;;;;;8.13;3.33;;;-5.10;99.90;;;;;;5099546;28;20832;-64
2022/04/03 01:04:26;;;;;;;10.17;3.40;;;-5.20;99.90;;;;;;5099641;28;20271;-64
2022/04/03 01:06:51;;;;;;;9.27;3.27;;;-5.20;99.90;;;;;;5102685;28;20097;-64
2022/04/03 01:09:17;;;;;;;8.57;3.43;;;-5.10;99.90;;;;;;5100564;28;20050;-64
2022/04/03 01:11:45;;;;;;;7.53;3.53;;;-5.00;99.90;;;;;;5102070;28;20043;-64
2022/04/03 01:14:11;;;;;;;5.07;2.70;;;-4.90;99.90;;;;;;5081015;28;20457;-64
2022/04/03 01:16:36;;;;;;;7.33;3.43;;;-4.90;99.90;;;;;;5090321;28;20358;-66
2022/04/03 01:19:03;;;;;;;6.00;3.03;;;-4.80;99.90;;;;;;5089716;28;20036;-64
2022/04/03 01:21:29;;;;;;;8.90;3.57;;;-4.90;99.90;;;;;;5098500;28;20213;-64
2022/04/03 01:23:55;;;;;;;6.23;3.30;;;-4.80;99.90;;;;;;5099955;28;20862;-64
2022/04/03 01:26:23;;;;;;;6.70;3.53;;;-4.70;99.90;;;;;;5097717;28;20131;-64
2022/04/03 01:28:49;;;;;;;9.63;3.53;;;-4.60;99.90;;;;;;5080593;28;20298;-64
2022/04/03 01:31:14;;;;;;;8.70;4.03;;;-4.40;99.90;;;;;;5089761;28;20335;-63
2022/04/03 01:33:40;;;;;;;10.20;3.77;;;-4.30;99.90;;;;;;5092680;28;20151;-64
2022/04/03 01:36:06;;;;;;;9.23;4.53;;;-4.20;99.90;;;;;;5098209;28;20055;-63
2022/04/03 01:38:31;;;;;;;6.07;3.30;;;-4.10;99.90;;;;;;5099866;28;20414;-64
2022/04/03 01:40:57;;;;;;;7.43;3.83;;;-4.00;99.90;;;;;;5100336;28;20413;-64
2022/04/03 01:43:23;;;;;;;6.47;3.33;;;-3.90;99.90;;;;;;5101271;28;20071;-64
2022/04/03 01:45:48;;;;;;;7.63;3.80;;;-3.80;99.90;;;;;;5099423;28;20036;-64
2022/04/03 01:48:14;;;;;;;7.60;3.70;;;-3.70;99.90;;;;;;5080453;28;20043;-64
2022/04/03 01:50:40;;;;;;;10.67;3.80;;;-3.70;99.90;;;;;;5089154;28;20055;-64
2022/04/03 01:53:05;;;;;;;6.70;3.70;;;-3.60;99.90;;;;;;5079961;28;20044;-64
2022/04/03 01:55:32;;;;;;;10.57;4.30;;;-3.50;99.90;;;;;;5089943;28;20036;-64
2022/04/03 01:57:57;;;;;;;8.30;3.87;;;-3.30;99.90;;;;;;5089874;28;20040;-64
2022/04/03 02:00:23;;;;;;;8.13;3.80;;;-3.20;99.90;;;;;;5098744;28;20282;-64
2022/04/03 02:02:51;;;;;;;6.80;3.50;;;-3.20;99.90;;;;;;5098348;28;20549;-64
2022/04/03 02:05:17;;;;;;;5.73;3.40;;;-3.10;99.90;;;;;;5098362;28;20043;-64
2022/04/03 02:07:43;;;;;;;7.37;3.23;;;-3.00;99.90;;;;;;5082405;28;20740;-64
2022/04/03 02:10:09;;;;;;;7.53;3.60;;;-2.90;99.90;;;;;;5089338;28;20051;-64
2022/04/03 02:12:39;;;;;;;7.40;3.10;;;-2.80;99.90;;;;;;5082102;28;20493;-64
2022/04/03 02:15:06;;;;;;;9.27;3.13;;;-2.80;99.90;;;;;;5097129;28;20794;-64
2022/04/03 02:17:32;;;;;;;5.53;3.10;;;-2.70;99.90;;;;;;5099438;28;20660;-64
2022/04/03 02:19:58;;;;;;;13.93;3.63;;;;;;;;;;5098265;28;20285;-64
2022/04/03 02:22:24;;;;;;;5.20;3.40;;;-2.70;99.90;;;;;;5099333;28;20702;-64
2022/04/03 02:24:49;;;;;;;8.93;3.97;;;-2.60;99.90;;;;;;5096867;28;20044;-64
2022/04/03 02:27:15;;;;;;;6.10;3.17;;;-2.60;99.90;;;;;;5071343;28;20046;-64
2022/04/03 02:29:41;;;;;;;6.97;3.50;;;-2.70;99.90;;;;;;5090276;28;20085;-64
2022/04/03 02:32:07;;;;;;;6.60;3.50;;;-2.70;99.90;;;;;;5089812;28;20772;-64
2022/04/03 02:34:33;;;;;;;8.43;3.90;;;-2.60;99.90;;;;;;5089954;28;20143;-64
2022/04/03 02:36:58;;;;;;;4.77;3.03;;;-2.60;99.90;;;;;;5089213;28;20071;-64
2022/04/03 02:39:24;;;;;;;6.93;3.53;;;-2.50;99.90;;;;;;5072783;28;20036;-64
2022/04/03 02:41:50;;;;;;;10.63;3.83;;;-2.50;99.90;;;;;;5089405;28;20407;-64
2022/04/03 02:44:16;;;;;;;6.60;4.27;;;-2.50;99.90;;;;;;5089417;28;20097;-64
2022/04/03 02:46:43;;;;;;;10.30;3.73;;;;;;;;;;5089489;28;20039;-64
2022/04/03 02:49:09;;;;;;;7.90;3.10;;;;;;;;;;5089454;28;20301;-64
2022/04/03 02:51:36;;;;;;;9.27;4.37;;;;;;;;;;5089981;28;20889;-65
2022/04/03 02:54:02;;;;;;;9.57;3.63;;;;;;;;;;5089115;28;20286;-64
2022/04/03 02:56:28;;;;;;;7.60;3.70;;;;;;;;;;5089599;28;20282;-64
2022/04/03 02:58:55;;;;;;;13.50;4.20;;;;;;;;;;5089064;28;20332;-64
2022/04/03 03:01:21;;;;;;;5.77;3.40;;;;;;;;;;5071305;28;20133;-65
2022/04/03 03:03:47;;;;;;;8.10;3.63;;;;;;;;;;5089187;28;21389;-65
2022/04/03 03:06:14;;;;;;;6.47;3.73;;;;;;;;;;5089483;28;20369;-64
2022/04/03 03:08:41;;;;;;;6.43;3.63;;;;;;;;;;5099272;28;20826;-64
2022/04/03 03:11:07;;;;;;;9.97;4.10;;;;;;;;;;5100938;28;20660;-64
2022/04/03 03:13:33;;;;;;;7.13;3.87;;;;;;;;;;5099356;28;20289;-64
2022/04/03 03:15:59;;;;;;;9.07;3.70;;;;;;;;;;5097583;28;20728;-64
2022/04/03 03:18:26;;;;;;;9.03;3.93;;;;;;;;;;5098327;28;20711;-65
2022/04/03 03:20:52;;;;;;;11.70;4.17;;;;;;;;;;5095916;28;20352;-64
2022/04/03 03:23:19;;;;;;;5.63;3.50;;;;;;;;;;5098916;28;20290;-64
2022/04/03 03:25:45;;;;;;;7.60;4.33;;;;;;;;;;5097809;28;20051;-64
2022/04/03 03:28:11;;;;;;;8.13;4.00;;;;;;;;;;5096766;28;20403;-64
2022/04/03 03:30:38;;;;;;;6.87;4.10;;;;;;;;;;5099240;28;20285;-64
2022/04/03 03:33:05;;;;;;;11.23;4.57;;;;;;;;;;5097295;28;20285;-64
2022/04/03 03:35:31;;;;;;;9.73;5.37;;;;;;;;;;5098419;28;20356;-64
2022/04/03 03:37:57;;;;;;;9.07;5.13;;;;;;;;;;5096744;28;20361;-64
2022/04/03 03:40:23;;;;;;;11.17;5.90;;;;;;;;;;5098620;28;20281;-65
2022/04/03 03:42:49;;;;;;;10.43;5.33;;;;;;;;;;5097769;28;20652;-64
2022/04/03 03:45:16;;;;;;;11.90;6.10;;;;;;;;;;5096433;28;20043;-64
2022/04/03 03:47:48;;;;;;;11.10;5.27;;;;;;;;;;5098071;28;20729;-65
2022/04/03 03:50:15;;;;;;;9.63;4.53;;;;;;;;;;5099071;28;20334;-64
2022/04/03 03:52:42;;;;;;;10.27;5.70;;;-2.50;99.90;;;;;;5103578;28;20281;-64
2022/04/03 03:55:08;;;;;;;9.43;5.57;;;-2.00;1.00;;;;;;5104206;28;20309;-64
2022/04/03 03:57:34;;;;;;;11.07;5.43;;;-1.90;99.90;;;;;;5105706;28;20352;-65
2022/04/03 04:00:01;;;;;;;8.67;4.83;;;-1.90;99.90;;;;;;5103740;28;20716;-64
2022/04/03 04:02:26;;;;;;;6.77;4.37;;;-1.80;99.90;;;;;;5085686;28;20082;-65
2022/04/03 04:04:52;;;;;;;7.53;4.50;;;-1.70;99.90;;;;;;5108434;28;20324;-65
2022/04/03 04:07:18;;;;;;;9.20;5.03;;;;;;;;;;5102950;28;20073;-65
2022/04/03 04:09:44;;;;;;;9.20;5.60;;;;;;;;;;5106021;28;20116;-65
2022/04/03 04:12:10;;;;;;;8.40;4.60;;;-1.60;99.90;;;;;;5102163;28;20096;-64
2022/04/03 04:14:38;;;;;;;6.50;4.67;;;-1.40;99.90;;;;;;5105232;28;20273;-64
2022/04/03 04:17:05;;;;;;;11.23;4.97;;;-1.30;99.90;;;;;;5104173;28;20047;-65
2022/04/03 04:19:31;;;;;;;7.47;4.67;;;-1.30;99.90;;;;;;5105141;28;20277;-64
2022/04/03 04:21:57;;;;;;;8.60;4.13;;;-1.20;99.90;;;;;;5102955;28;20293;-64
2022/04/03 04:24:22;;;;;;;6.77;4.10;;;-1.10;99.90;;;;;;5104509;28;20551;-64
2022/04/03 04:26:48;;;;;;;10.27;5.30;;;-1.10;99.90;;;;;;5103485;28;20043;-64
2022/04/03 04:29:13;;;;;;;8.37;4.20;;;-1.00;99.90;;;;;;5104968;28;20035;-64
2022/04/03 04:31:39;;;;;;;6.60;3.80;;;-1.00;99.90;;;;;;5104282;28;20097;-65
2022/04/03 04:34:05;;;;;;;13.00;4.27;;;-0.90;99.90;;;;;;5103009;28;20051;-64
2022/04/03 04:36:30;;;;;;;8.27;3.87;;;-0.90;99.90;;;;;;5105128;28;20086;-65
2022/04/03 04:38:57;;;;;;;5.37;3.40;;;-0.80;99.90;;;;;;5103933;28;20498;-65
2022/04/03 04:41:23;;;;;;;6.53;3.43;;;-0.80;99.90;;;;;;5085266;28;20094;-65
2022/04/03 04:43:49;;;;;;;5.13;3.33;;;-0.80;99.90;;;;;;5076047;28;20317;-65
2022/04/03 04:46:15;;;;;;;6.57;4.10;;;-0.70;99.90;;;;;;5098177;28;20313;-64
2022/04/03 04:48:40;;;;;;;5.93;3.30;;;-0.60;99.90;;;;;;5105728;28;20123;-65
2022/04/03 04:51:06;;;;;;;7.70;3.70;;;-0.60;99.90;;;;;;5102551;28;20383;-65
2022/04/03 04:53:31;;;;;;;10.23;3.47;;;-0.50;99.90;;;;;;5096876;28;20040;-64
2022/04/03 04:55:57;;;;;;;4.63;2.80;;;-0.60;99.90;;;;;;5094142;28;20108;-65
2022/04/03 04:58:23;;;;;;;8.47;3.70;;;-0.60;99.90;;;;;;5095178;28;20040;-65
2022/04/03 05:00:48;;;;;;;8.83;3.03;;;-0.60;99.90;;;;;;5099712;28;20044;-65
2022/04/03 05:03:14;;;;;;;6.83;3.47;;;-0.70;99.90;;;;;;5087694;28;20485;-65
2022/04/03 05:05:40;;;;;;;9.63;2.97;;;-0.90;99.90;;;;;;5091780;28;20055;-65
2022/04/03 05:08:07;;;;;;;5.40;3.27;;;-1.00;99.90;;;;;;5089880;28;20075;-65
2022/04/03 05:10:33;;;;;;;9.13;3.30;;;-1.10;99.90;;;;;;5092013;28;20316;-65
2022/04/03 05:13:00;;;;;;;8.37;3.57;;;-1.10;1.00;;;;;;5091331;28;20318;-65
2022/04/03 05:15:28;;;;;;;8.67;3.80;;;-1.20;1.00;;;;;;5091536;28;20048;-64
2022/04/03 05:17:54;;;;;;;8.27;3.63;;;-1.30;1.00;;;;;;5090657;28;20785;-65
2022/04/03 05:20:20;;;;;;;6.20;3.90;;;-1.40;1.00;;;;;;5090932;28;20282;-64
2022/04/03 05:22:45;;;;;;;7.10;4.23;;;-1.50;1.00;;;;;;5090707;28;20409;-64
2022/04/03 05:25:11;;;;;;;7.77;4.10;;;-1.50;1.00;;;;;;5090651;28;20090;-65
2022/04/03 05:27:42;;;;;;;5.97;4.30;;;-1.60;1.00;;;;;;5090775;28;20096;-65
2022/04/03 05:30:09;;;;;;;7.33;4.43;;;-1.60;1.00;;;;;;5091262;28;20286;-65
2022/04/03 05:32:36;;;;;;;8.50;4.60;;;-1.50;1.00;;;;;;5090694;28;20321;-65
2022/04/03 05:35:03;;;;;;;10.27;4.80;;;-1.60;1.00;;;;;;5090285;28;20294;-65
2022/04/03 05:37:29;;;;;;;9.13;4.80;;;-1.60;1.00;;;;;;5090812;28;20333;-64
2022/04/03 05:39:55;;;;;;;8.60;5.47;;;-1.60;1.00;;;;;;5090308;28;20616;-65
2022/04/03 05:42:22;;;;;;;10.37;4.90;;;-1.60;1.00;;;;;;5090612;28;20290;-65
2022/04/03 05:44:48;;;;;;;7.47;4.37;;;-1.60;1.00;;;;;;5090277;28;20048;-65
2022/04/03 05:47:16;;;;;;;8.23;4.70;;;-1.60;1.00;;;;;;5055498;28;20387;-64
2022/04/03 05:49:41;;;;;;;6.73;4.20;;;-1.70;1.00;;;;;;5090047;28;20804;-65
2022/04/03 05:52:07;;;;;;;10.33;4.83;;;-1.70;1.00;;;;;;5090713;28;20313;-65
2022/04/03 05:54:33;;;;;;;11.63;4.87;;;-1.60;1.00;;;;;;5090113;28;20514;-65
2022/04/03 05:56:59;;;;;;;9.60;5.23;;;-1.60;1.00;;;;;;5090195;28;20123;-65
2022/04/03 05:59:24;;;;;;;9.60;4.73;;;-1.50;1.00;;;;;;5093957;28;21949;-65
2022/04/03 06:01:50;;;;;;;9.20;4.63;;;-1.50;1.00;;;;;;5110049;28;20102;-65
2022/04/03 06:04:16;;;;;;;8.73;4.40;;;-1.40;1.00;;;;;;5109872;28;20043;-65
2022/04/03 06:06:42;;;;;;;9.30;4.40;;;-1.40;1.00;;;;;;5110388;28;20051;-65
2022/04/03 06:09:08;;;;;;;6.73;4.87;;;-1.30;1.00;;;;;;5110511;28;20501;-65
2022/04/03 06:11:34;;;;;;;8.63;4.10;;;-1.20;1.00;;;;;;5110672;28;20063;-65
2022/04/03 06:14:00;;;;;;;8.77;3.70;;;-1.20;1.00;;;;;;5110179;28;20312;-65
2022/04/03 06:16:26;;;;;;;8.87;3.90;;;-1.10;1.00;;;;;;5091395;28;20122;-65
2022/04/03 06:18:53;;;;;;;7.17;3.80;;;-1.00;1.00;;;;;;5092099;28;20368;-65
2022/04/03 06:21:19;;;;;;;10.43;3.13;;;-0.80;1.00;;;;;;5096432;28;20074;-65
2022/04/03 06:23:45;;;;;;;7.07;4.03;;;-0.60;1.00;;;;;;5089704;28;20705;-65
2022/04/03 06:26:10;;;;;;;5.40;3.33;;;-0.40;1.00;;;;;;5089452;28;20312;-65
2022/04/03 06:28:36;;;;;;;5.23;3.17;;;-0.40;1.00;;;;;;5094245;28;20036;-65
2022/04/03 06:31:02;;;;;;;5.30;3.43;;;;;;;;;;5100546;28;20052;-66
2022/04/03 06:33:28;;;;;;;5.13;3.30;;;;;;;;;;5100986;28;20048;-65
2022/04/03 06:35:54;;;;;;;10.20;3.10;;;;;;;;;;5101534;28;20286;-65
2022/04/03 06:38:21;;;;;;;7.07;3.20;;;;;;;;;;5091199;28;20290;-65
2022/04/03 06:40:51;;;;;;;5.30;2.70;;;;;;;;;;5102210;28;20294;-65
2022/04/03 06:43:21;;;;;;;4.93;3.17;;;;;;;;;;5089583;28;20286;-65
2022/04/03 06:45:48;;;;;;;4.70;3.10;;;;;;;;;;5093020;28;20691;-65
2022/04/03 06:48:14;;;;;;;6.10;2.90;;;;;;;;;;5078419;28;20372;-65
2022/04/03 06:50:40;;;;;;;6.40;2.47;;;;;;;;;;5098909;28;20286;-66
2022/04/03 06:53:06;;;;;;;5.63;2.73;;;;;;;;;;5099578;28;20274;-65
2022/04/03 06:55:32;;;;;;;5.43;2.60;;;;;;;;;;5100476;28;20656;-65
2022/04/03 06:57:59;;;;;;;8.73;2.80;;;;;;;;;;5106395;28;20281;-66
2022/04/03 07:00:26;;;;;;;7.03;2.83;;;;;;;;;;5099347;28;20822;-66
2022/04/03 07:02:52;;;;;;;3.13;1.90;;;;;;;;;;5078579;28;20329;-65
2022/04/03 07:05:18;;;;;;;8.00;2.30;;;;;;;;;;5097524;28;20285;-66
2022/04/03 07:07:44;;;;;;;7.37;2.93;;;;;;;;;;5096840;28;20313;-65
2022/04/03 07:10:11;;;;;;;12.47;1.90;;;;;;;;;;5090471;28;21234;-65
2022/04/03 07:12:37;;;;;;;4.03;2.20;;;;;;;;;;5095778;28;20290;-65
2022/04/03 07:15:04;;;;;;;8.67;2.10;;;;;;;;;;5071443;28;20359;-65
2022/04/03 07:17:30;;;;;;;7.07;2.63;;;;;;;;;;5089284;28;20296;-66
2022/04/03 07:19:56;;;;;;;5.03;2.07;;;;;;;;;;5093620;28;20080;-66
2022/04/03 07:22:22;;;;;;;5.40;1.60;;;;;;;;;;5096491;28;20074;-65
2022/04/03 07:24:48;;;;;;;5.13;1.70;;;;;;;;;;5096802;28;20050;-65
2022/04/03 07:27:14;;;;;;;9.27;1.73;;;;;;;;;;5094978;28;20051;-65
2022/04/03 07:29:40;;;;;;;4.50;1.60;;;;;;;;;;5107332;28;20043;-65
2022/04/03 07:32:07;;;;;;;3.20;1.73;;;;;;;;;;5089791;28;20048;-64
2022/04/03 07:34:33;;;;;;;7.20;1.60;;;;;;;;;;5095451;28;20062;-64
2022/04/03 07:36:59;;;;;;;5.17;1.77;;;;;;;;;;5097986;28;20046;-65
2022/04/03 07:39:30;;;;;;;3.97;1.60;;;;;;;;;;5095690;28;20047;-65
2022/04/03 07:41:56;;;;;;;4.47;1.70;;;;;;;;;;5100011;28;20047;-65
2022/04/03 07:44:22;;;;;;;6.97;1.60;;;;;;;;;;5096129;28;20058;-65
2022/04/03 07:46:48;;;;;;;4.50;1.87;;;;;;;;;;5098215;28;20067;-65
2022/04/03 07:49:14;;;;;;;8.17;2.27;;;;;;;;;;5099101;28;20046;-65
2022/04/03 07:51:40;;;;;;;24.33;3.47;;;;;;;;;;5108118;28;20032;-65
2022/04/03 07:54:06;;;;;;;3.37;1.53;;;;;;;;;;5099211;28;20075;-65
2022/04/03 07:56:33;;;;;;;8.10;1.60;;;;;;;;;;5094869;28;20051;-65
2022/04/03 07:58:59;;;;;;;5.93;1.50;;;;;;;;;;5097718;28;20082;-65
2022/04/03 08:01:25;;;;;;;3.90;1.57;;;;;;;;;;5096739;28;20090;-65
2022/04/03 08:03:51;;;;;;;5.60;1.50;;;;;;;;;;5099812;28;20036;-65
2022/04/03 08:06:17;;;;;;;6.67;2.10;;;;;;;;;;5100305;28;20048;-65
2022/04/03 08:08:43;;;;;;;7.20;1.00;;;;;;;;;;5103663;28;20098;-65
2022/04/03 08:11:09;;;;;;;3.47;1.20;;;;;;;;;;5087846;28;20453;-65
2022/04/03 08:13:35;;;;;;;4.17;0.80;;;;;;;;;;5088330;28;20090;-65
2022/04/03 08:16:01;;;;;;;6.80;1.30;;;;;;;;;;5071303;28;20072;-65
2022/04/03 08:18:28;;;;;;;3.43;1.13;;;;;;;;;;5088200;28;20040;-65
2022/04/03 08:20:54;;;;;;;5.30;1.70;;;;;;;;;;5104601;28;20040;-65
2022/04/03 08:23:20;;;;;;;5.77;1.50;;;;;;;;;;5087481;28;20047;-65
2022/04/03 08:25:46;;;;;;;4.23;1.17;;;;;;;;;;5088926;28;20040;-64
2022/04/03 08:28:14;;;;;;;3.83;1.40;;;;;;;;;;5095215;28;20043;-66
2022/04/03 08:30:40;;;;;;;7.30;1.73;;;;;;;;;;5096268;28;20498;-66
2022/04/03 08:33:08;;;;;;;4.30;1.17;;;;;;;;;;5096966;28;20036;-67
2022/04/03 08:35:40;;;;;;;11.43;1.30;;;;;;;;;;5097622;28;20066;-67
2022/04/03 08:38:06;;;;;;;2.30;1.00;;;;;;;;;;5099361;28;20127;-67
2022/04/03 08:40:33;;;;;;;5.17;1.17;;;;;;;;;;5100426;28;20043;-68
2022/04/03 08:43:00;;;;;;;3.97;0.93;;;;;;;;;;5098952;28;20107;-67
2022/04/03 08:45:27;;;;;;;4.47;1.17;;;;;;;;;;5093063;28;20047;-67
2022/04/03 08:48:02;;;;;;;3.27;0.60;;;;;;;;;;5101350;28;20044;-67
2022/04/03 08:50:30;;;;;;;2.40;0.73;;;;;;;;;;5092760;28;20053;-68
2022/04/03 08:52:58;;;;;;;2.67;0.87;;;;;;;;;;5103084;28;20075;-67
2022/04/03 08:55:24;;;;;;;2.37;0.90;;;;;;;;;;5103152;28;20036;-67
2022/04/03 08:57:50;;;;;;;4.50;0.90;;;;;;;;;;5080073;28;20490;-67
2022/04/03 09:00:16;;;;;;;2.67;0.80;;;;;;;;;;5090955;28;20379;-67
2022/04/03 09:02:45;;;;;;;1.33;0.63;;;;;;;;;;5095557;28;20071;-67
2022/04/03 09:05:11;;;;;;;4.10;0.90;;;;;;;;;;5076922;28;20472;-67
2022/04/03 09:07:37;;;;;;;1.10;0.40;;;;;;;;;;5083403;28;20048;-67
2022/04/03 09:10:08;;;;;;;4.07;1.00;;;;;;;;;;5096639;28;20494;-67
2022/04/03 09:12:34;;;;;;;2.43;1.20;;;;;;;;;;5092286;28;20062;-67
2022/04/03 09:15:01;;;;;;;3.17;0.87;;;;;;;;;;5097890;28;20044;-67
2022/04/03 09:17:33;;;;;;;1.53;0.60;;;;;;;;;;5093394;28;20525;-67
2022/04/03 09:20:15;;;;;;;3.63;0.80;;;;;;;;;;5103942;28;20066;-67
2022/04/03 09:22:43;;;;;;;2.77;0.73;;;;;;;;;;5101573;28;20798;-67
2022/04/03 09:25:10;;;;;;;1.70;0.80;;;;;;;;;;5097692;28;20584;-67
2022/04/03 09:27:47;;;;;;;1.90;0.60;;;;;;;;;;5096368;28;20052;-67
2022/04/03 09:30:13;;;;;;;3.03;0.70;;;;;;;;;;5090800;28;20494;-67
2022/04/03 09:32:47;;;;;;;3.73;0.70;;;;;;;;;;5091442;28;20086;-67
2022/04/03 09:35:13;;;;;;;2.87;0.60;;;;;;;;;;5078325;28;20101;-67
2022/04/03 09:38:00;;;;;;;3.33;1.70;;;;;;;;;;5090707;28;20131;-66
2022/04/03 09:40:33;;;;;;;2.40;0.60;;;;;;;;;;5090438;28;20040;-67
2022/04/03 09:43:15;;;;;;;1.63;0.68;;;;;;;;;;5090441;28;20235;-67
2022/04/03 09:45:54;;;;;;;4.17;0.80;;;;;;;;;;5098965;28;20036;-66
2022/04/03 09:48:23;;;;;;;2.47;0.60;;;;;;;;;;5079624;28;20044;-67
2022/04/03 09:50:56;;;;;;;2.57;0.70;;;;;;;;;;5073939;28;20130;-68
2022/04/03 09:53:23;;;;;;;2.63;0.93;;;;;;;;;;5100674;28;20533;-67
2022/04/03 09:55:49;;;;;;;3.67;0.70;;;;;;;;;;5097963;28;20054;-67
2022/04/03 09:58:16;;;;;;;2.23;0.43;;;;;;;;;;5098971;28;20067;-67
2022/04/03 10:00:43;;;;;;;1.03;0.43;;;;;;;;;;5103746;28;20049;-67
2022/04/03 10:03:13;;;;;;;5.50;0.60;;;;;;;;;;5099413;28;20134;-67
2022/04/03 10:05:39;;;;;;;3.27;0.60;;;;;;;;;;5092754;28;20072;-67
2022/04/03 10:08:06;;;;;;;2.37;0.50;;;;;;;;;;5100094;28;20047;-67
2022/04/03 10:10:36;;;;;;;3.47;0.60;;;;;;;;;;5089665;28;20040;-66
2022/04/03 10:13:03;;;;;;;6.70;1.20;;;;;;;;;;5090462;28;20387;-66
2022/04/03 10:15:29;;;;;;;6.93;1.03;;;;;;;;;;5104545;28;20044;-66
2022/04/03 10:17:56;;;;;;;2.20;0.60;;;;;;;;;;5079608;28;20422;-66
2022/04/03 10:20:24;;;;;;;2.10;0.60;;;;;;;;;;5095270;28;20039;-66
2022/04/03 10:22:54;;;;;;;1.50;0.60;;;;;;;;;;5099357;28;20118;-67
2022/04/03 10:25:23;;;;;;;1.40;0.37;;;;;;;;;;5100322;28;20042;-67
2022/04/03 10:27:50;;;;;;;1.10;0.40;;;;;;;;;;5103323;28;20035;-67
2022/04/03 10:30:17;;;;;;;2.87;0.53;;;;;;;;;;5095513;28;20879;-67
2022/04/03 10:32:56;;;;;;;2.20;0.50;;;;;;;;;;5090641;28;20047;-67
2022/04/03 10:35:22;;;;;;;1.07;0.40;;;;;;;;;;5072093;28;20125;-67
2022/04/03 10:37:59;;;;;;;2.13;0.50;;;;;;;;;;5089500;28;20050;-66
2022/04/03 10:40:29;;;;;;;1.50;0.40;;;;;;;;;;5080569;28;20048;-66
2022/04/03 10:43:06;;;;;;;2.37;0.50;;;;;;;;;;5090322;28;20079;-66
2022/04/03 10:45:33;;;;;;;1.93;0.30;;;;;;;;;;5071685;28;20043;-66
2022/04/03 10:48:17;;;;;;;2.60;0.40;;;;;;;;;;5096380;28;20054;-65
2022/04/03 10:51:02;;;;;;;2.20;0.30;;;;;;;;;;5090414;28;20043;-65
2022/04/03 10:53:32;;;;;;;2.87;0.53;;;;;;;;;;5089607;28;20082;-65
2022/04/03 10:55:59;;;;;;;1.23;0.30;;;;;;;;;;5089601;28;20552;-66
2022/04/03 10:58:37;;;;;;;1.67;0.27;;;;;;;;;;5071551;28;20044;-66
2022/04/03 11:01:04;;;;;;;0.90;0.27;;;;;;;;;;5087641;28;20507;-65
2022/04/03 11:03:31;;;;;;;1.97;0.30;;;;;;;;;;5097904;28;20179;-65
2022/04/03 11:05:57;;;;;;;2.13;0.30;;;;;;;;;;5079323;28;20551;-65
2022/04/03 11:08:43;;;;;;;1.27;0.50;;;;;;;;;;5094203;28;20047;-65
2022/04/03 11:11:09;;;;;;;1.03;0.40;;;;;;;;;;5094764;28;20044;-65
2022/04/03 11:13:35;;;;;;;1.13;0.33;;;;;;;;;;5097441;28;20499;-65
2022/04/03 11:16:04;;;;;;;1.10;0.30;;;;;;;;;;5094414;28;20159;-65
2022/04/03 11:18:30;;;;;;;2.83;0.40;;;;;;;;;;5090624;28;20516;-65
2022/04/03 11:21:16;;;;;;;1.43;0.57;;;;;;;;;;5098165;28;20147;-65
2022/04/03 11:24:00;;;;;;;0.90;0.30;;;;;;;;;;5090708;28;20079;-65
2022/04/03 11:26:26;;;;;;;1.03;0.43;;;;;;;;;;5082386;28;20113;-65
2022/04/03 11:28:53;;;;;;;0.30;0.20;;;;;;;;;;5089696;28;20052;-65
2022/04/03 11:31:19;;;;;;;1.50;0.40;;;;;;;;;;5089851;28;20100;-65
2022/04/03 11:33:46;;;;;;;1.77;0.37;;;;;;;;;;5097158;28;20040;-65
2022/04/03 11:36:14;;;;;;;1.33;0.37;;;;;;;;;;5096919;28;20056;-65
2022/04/03 11:38:41;;;;;;;1.10;0.30;;;;;;;;;;5097281;28;20048;-66
2022/04/03 11:41:10;;;;;;;1.27;0.40;;;;;;;;;;5104732;28;20051;-65
2022/04/03 11:43:36;;;;;;;0.80;0.20;;;;;;;;;;5099122;28;20047;-65
2022/04/03 11:46:03;;;;;;;6.33;0.93;;;;;;;;;;5094624;28;20152;-65
2022/04/03 11:48:33;;;;;;;1.20;0.40;;;;;;;;;;5097793;28;20050;-65
2022/04/03 11:51:05;;;;;;;1.83;0.40;;;;;;;;;;5098061;28;20062;-65
2022/04/03 11:53:31;;;;;;;1.23;0.40;;;;;;;;;;5098234;28;20047;-65
2022/04/03 11:56:04;;;;;;;2.33;0.53;;;;;;;;;;5078400;28;20094;-65
2022/04/03 11:58:31;;;;;;;1.60;0.50;;;;;;;;;;5099772;28;20040;-65
2022/04/03 12:00:58;;;;;;;1.57;0.40;;;;;;;;;;5097233;28;20045;-65
2022/04/03 12:03:28;;;;;;;1.13;0.30;;;;;;;;;;5090279;28;20050;-65
2022/04/03 12:06:09;;;;;;;1.67;0.47;;;;;;;;;;5089148;28;20123;-65
2022/04/03 12:08:39;;;;;;;1.63;0.60;;;;;;;;;;5090554;28;20036;-64
2022/04/03 12:11:16;;;;;;;3.37;0.67;;;;;;;;;;5089687;28;20249;-65
2022/04/03 12:13:43;;;;;;;0.50;0.20;;;;;;;;;;5093154;28;20055;-64
2022/04/03 12:16:09;;;;;;;2.03;0.40;;;;;;;;;;5093600;28;20036;-64
2022/04/03 12:18:54;;;;;;;2.53;0.50;;;;;;;;;;5094278;28;20044;-65
2022/04/03 12:21:21;;;;;;;2.33;0.57;;;;;;;;;;5093448;28;20036;-65
2022/04/03 12:24:06;;;;;;;4.77;1.20;;;;;;;;;;5093285;28;20040;-65
2022/04/03 12:26:32;;;;;;;2.43;0.80;;;;;;;;;;5108487;28;20417;-65
2022/04/03 12:28:58;;;;;;;3.63;0.80;;;;;;;;;;5096738;28;20074;-65
2022/04/03 12:31:28;;;;;;;1.13;0.50;;;;;;;;;;5095424;28;20105;-64
2022/04/03 12:34:09;;;;;;;1.47;0.97;;;;;;;;;;5096339;28;20044;-64
2022/04/03 12:36:41;;;;;;;1.97;0.47;;;;;;;;;;5102294;28;20344;-64
2022/04/03 12:39:26;;;;;;;1.97;0.60;;;;;;;;;;5099681;28;20122;-64
2022/04/03 12:41:52;;;;;;;1.57;0.60;;;;;;;;;;5102266;28;20074;-64
2022/04/03 12:44:18;;;;;;;1.23;0.40;;;;;;;;;;5100064;28;20054;-64
2022/04/03 12:46:46;;;;;;;2.40;0.60;;;;;;;;;;5102201;28;20093;-64
2022/04/03 12:49:16;;;;;;;2.13;0.37;;;;;;;;;;5101352;28;20055;-65
2022/04/03 12:51:49;;;;;;;3.50;0.60;;;;;;;;;;5101473;28;20100;-65
2022/04/03 12:54:18;;;;;;;3.55;0.80;;;;;;;;;;5101858;28;20042;-65
2022/04/03 12:59:39;;;;;;;1.97;0.77;;;;;;;;;;5100353;28;20084;-64
2022/04/03 13:02:08;;;;;;;3.30;0.70;;;;;;;;;;5099872;28;20050;-65
2022/04/03 13:04:35;;;;;;;2.17;0.90;;;;;;;;;;5102159;28;20129;-65
2022/04/03 13:07:03;;;;;;;3.67;1.67;;;;;;;;;;5098380;28;20040;-65
2022/04/03 13:09:30;;;;;;;6.70;1.23;;;;;;;;;;5100609;28;20059;-65
2022/04/03 13:11:57;;;;;;;3.07;0.90;;;;;;;;;;5099044;28;20044;-64
2022/04/03 13:14:28;;;;;;;3.67;1.07;;;;;;;;;;5097835;28;20043;-64
2022/04/03 13:16:57;;;;;;;3.43;1.00;;;;;;;;;;5103909;28;20063;-64
2022/04/03 13:19:25;;;;;;;5.37;1.37;;;;;;;;;;5097011;28;20036;-64
2022/04/03 13:21:52;;;;;;;1.87;0.93;;;;;;;;;;5098963;28;20079;-64
2022/04/03 13:24:19;;;;;;;2.47;1.20;;;;;;;;;;5098747;28;20157;-64
2022/04/03 13:26:45;;;;;;;3.00;0.90;;;;;;;;;;5097715;28;20036;-64
2022/04/03 13:29:12;;;;;;;2.00;0.80;;;;;;;;;;5100071;28;20051;-64
2022/04/03 13:31:38;;;;;;;4.40;1.10;;;;;;;;;;5098778;28;20059;-64
2022/04/03 13:34:05;;;;;;;3.33;1.10;;;;;;;;;;5097327;28;20067;-64
2022/04/03 13:36:31;;;;;;;2.20;0.70;;;;;;;;;;5083212;28;20094;-64
2022/04/03 13:38:57;;;;;;;3.43;0.83;;;;;;;;;;5104348;28;20047;-65
2022/04/03 13:41:23;;;;;;;1.60;0.77;;;;;;;;;;5102536;28;20040;-64
2022/04/03 13:43:49;;;;;;;3.70;0.90;;;;;;;;;;5097694;28;20047;-64
2022/04/03 13:46:16;;;;;;;2.37;1.00;;;;;;;;;;5098886;28;20075;-65
2022/04/03 13:48:42;;;;;;;3.53;0.80;;;;;;;;;;5092113;28;20039;-64
2022/04/03 13:51:09;;;;;;;1.90;1.00;;;;;;;;;;5097721;28;20044;-64
2022/04/03 13:53:36;;;;;;;2.60;1.20;;;;;;;;;;5100179;28;20040;-64
2022/04/03 13:56:03;;;;;;;3.97;1.37;;;;;;;;;;5091924;28;20105;-64
2022/04/03 13:58:30;;;;;;;4.33;2.27;;;;;;;;;;5098652;28;20409;-64
2022/04/03 14:01:00;;;;;;;1.43;0.83;;;;;;;;;;5100662;28;20431;-64